Sapporo, Japón

4:58 PM JST en Octubre 23, 2014 (GMT +0900)
New Chitose | Change Station
CLOSE
Current Station
Aeropuerto
Location: Chitose AB,
Altura: 98 ft
Estaciones meteorológicas cercanas

Alt 98 ft 42.77 °N, 141.69 °E | Updated 28 minutes ago

Clear
Despejado
48 ° F
Sensación térmica 48 ° F
N
7
Viento Variable Viento desde SSE

Hoy
Alta -- | Baja -- ° F
--% Posibilidad de precipitaciones
Ayer
Alta -- | Baja -- ° F
Precip. -- pul
5:57 AM 4:40 PM
Creciente menguante, 0% visible
Presión 30.12 pul
Visibilidad -9999.0 Millas
Nubes
Punto de rocío 34 ° F
Humedad 58%
Precipitaciones 0.00 pul
Espesor de la nieve No disponible.
UV No disponible.
Polen No disponible.
Calidad del aire No disponible.
Flu Activity No disponible.
METAR RJCC 230730Z 15006KT CAVOK 09/01 Q1020 RMK A3013

More Conditions Fewer Conditions

Presión 30.12 pul
Visibilidad -9999.0 Millas
Nubes
Punto de rocío 34 ° F
Humedad 58%
Precipitaciones 0.00 pul
Espesor de la nieve No disponible.
UV No disponible.
Polen No disponible.
Calidad del aire No disponible.
Flu Activity No disponible.
METAR RJCC 230730Z 15006KT CAVOK 09/01 Q1020 RMK A3013

More Conditions Fewer Conditions

10-Day Weather Forecast

Almanac

Astronomía

Oct. 23, 2014 Salida Puesta
Hora real 5:57 AM JST 4:40 PM JST
Crepúsculo civil 5:28 AM JST 5:09 PM JST
Crepúsculo náutico 4:55 AM JST 5:42 PM JST
Crepúsculo astronómico 4:22 AM JST 6:15 PM JST
Luna 4:57 AM JST 4:19 PM JST
Horas de luz 11h 40m
Horas de luz
10h 43m
Tomorrow will be 2m 44s shorter.
Creciente menguante, 0% of the Moon is Illuminated
Hoy
Creciente menguante
Oct 23
Nueva
Oct 30
Cuarto creciente
Nov 6
Luna llena
Nov 14
Cuarto menguante

Extremos de ayer

Máximos del país Bajas del país

Community

WunderPhotos

Upload Photos

1,764,194 ¡fotos cargadas!

Nearby

Calidad del aire

Not available.

Grosos de nieve

Not available.

Actividad de terremotos

Ciudad Distance Mag. Tiempo y dato
No hay informes recientes de la actividad sísmica.
Magnitud mínima muestra es 2,5.

Temperaturas de aguas costeras

Lugar Temperatura
Sin partes meteorológicos de las estaciones

Estaciones meteorológicas cercanas